sensor_id;sensor_type;location;lat;lon;timestamp;P1;durP1;ratioP1;P2;durP2;ratioP2
22298;SDS011;11317;51.072;17.036;2022-11-22T00:01:04;23.90;;;11.25;;
22298;SDS011;11317;51.072;17.036;2022-11-22T00:03:30;27.48;;;10.82;;
22298;SDS011;11317;51.072;17.036;2022-11-22T00:05:56;27.92;;;11.57;;
22298;SDS011;11317;51.072;17.036;2022-11-22T00:08:22;24.52;;;10.25;;
22298;SDS011;11317;51.072;17.036;2022-11-22T00:10:48;26.63;;;11.77;;
22298;SDS011;11317;51.072;17.036;2022-11-22T00:13:15;29.48;;;12.30;;
22298;SDS011;11317;51.072;17.036;2022-11-22T00:15:41;23.58;;;11.85;;
22298;SDS011;11317;51.072;17.036;2022-11-22T00:18:07;24.98;;;11.73;;
22298;SDS011;11317;51.072;17.036;2022-11-22T00:20:33;28.35;;;10.88;;
22298;SDS011;11317;51.072;17.036;2022-11-22T00:22:59;27.85;;;10.75;;
22298;SDS011;11317;51.072;17.036;2022-11-22T00:25:25;28.50;;;12.27;;
22298;SDS011;11317;51.072;17.036;2022-11-22T00:27:51;31.13;;;12.20;;
22298;SDS011;11317;51.072;17.036;2022-11-22T00:30:17;25.67;;;12.32;;
22298;SDS011;11317;51.072;17.036;2022-11-22T00:32:43;27.88;;;11.65;;
22298;SDS011;11317;51.072;17.036;2022-11-22T00:35:10;31.33;;;12.73;;
22298;SDS011;11317;51.072;17.036;2022-11-22T00:37:36;23.77;;;10.77;;
22298;SDS011;11317;51.072;17.036;2022-11-22T00:40:02;28.38;;;11.93;;
22298;SDS011;11317;51.072;17.036;2022-11-22T00:42:28;21.55;;;10.48;;
22298;SDS011;11317;51.072;17.036;2022-11-22T00:44:53;22.77;;;9.60;;
22298;SDS011;11317;51.072;17.036;2022-11-22T00:47:19;29.50;;;12.00;;
22298;SDS011;11317;51.072;17.036;2022-11-22T00:49:45;24.23;;;9.80;;
22298;SDS011;11317;51.072;17.036;2022-11-22T00:52:11;26.38;;;11.02;;
22298;SDS011;11317;51.072;17.036;2022-11-22T00:54:37;31.33;;;11.68;;
22298;SDS011;11317;51.072;17.036;2022-11-22T00:57:03;22.90;;;10.23;;
22298;SDS011;11317;51.072;17.036;2022-11-22T00:59:29;22.65;;;10.10;;
22298;SDS011;11317;51.072;17.036;2022-11-22T01:01:54;20.45;;;8.80;;
22298;SDS011;11317;51.072;17.036;2022-11-22T01:04:20;21.98;;;8.75;;
22298;SDS011;11317;51.072;17.036;2022-11-22T01:06:46;21.08;;;8.82;;
22298;SDS011;11317;51.072;17.036;2022-11-22T01:09:15;20.38;;;9.63;;
22298;SDS011;11317;51.072;17.036;2022-11-22T01:11:43;21.42;;;8.98;;
22298;SDS011;11317;51.072;17.036;2022-11-22T01:14:09;22.63;;;8.95;;
22298;SDS011;11317;51.072;17.036;2022-11-22T01:16:35;26.02;;;9.95;;
22298;SDS011;11317;51.072;17.036;2022-11-22T01:19:01;24.42;;;10.07;;
22298;SDS011;11317;51.072;17.036;2022-11-22T01:21:27;22.05;;;9.48;;
22298;SDS011;11317;51.072;17.036;2022-11-22T01:23:53;20.60;;;10.27;;
22298;SDS011;11317;51.072;17.036;2022-11-22T01:26:19;27.55;;;10.88;;
22298;SDS011;11317;51.072;17.036;2022-11-22T01:28:44;22.67;;;10.00;;
22298;SDS011;11317;51.072;17.036;2022-11-22T01:31:10;26.73;;;10.52;;
22298;SDS011;11317;51.072;17.036;2022-11-22T01:33:36;20.38;;;8.60;;
22298;SDS011;11317;51.072;17.036;2022-11-22T01:36:02;28.08;;;10.27;;
22298;SDS011;11317;51.072;17.036;2022-11-22T01:38:27;22.42;;;10.35;;
22298;SDS011;11317;51.072;17.036;2022-11-22T01:40:53;24.95;;;9.15;;
22298;SDS011;11317;51.072;17.036;2022-11-22T01:43:23;20.48;;;8.65;;
22298;SDS011;11317;51.072;17.036;2022-11-22T01:45:56;22.48;;;8.85;;
22298;SDS011;11317;51.072;17.036;2022-11-22T01:48:45;22.85;;;8.63;;
22298;SDS011;11317;51.072;17.036;2022-11-22T01:53:39;23.23;;;8.82;;
22298;SDS011;11317;51.072;17.036;2022-11-22T01:56:07;29.15;;;12.57;;
22298;SDS011;11317;51.072;17.036;2022-11-22T01:58:36;19.27;;;8.45;;
22298;SDS011;11317;51.072;17.036;2022-11-22T02:01:05;20.48;;;10.00;;
22298;SDS011;11317;51.072;17.036;2022-11-22T02:03:32;23.25;;;8.85;;
22298;SDS011;11317;51.072;17.036;2022-11-22T02:06:00;20.48;;;8.00;;
22298;SDS011;11317;51.072;17.036;2022-11-22T02:11:01;19.98;;;8.77;;
22298;SDS011;11317;51.072;17.036;2022-11-22T02:13:28;22.38;;;8.35;;
22298;SDS011;11317;51.072;17.036;2022-11-22T02:15:56;22.30;;;8.63;;
22298;SDS011;11317;51.072;17.036;2022-11-22T02:18:22;17.40;;;8.68;;
22298;SDS011;11317;51.072;17.036;2022-11-22T02:20:48;26.02;;;10.25;;
22298;SDS011;11317;51.072;17.036;2022-11-22T02:23:20;27.50;;;10.20;;
22298;SDS011;11317;51.072;17.036;2022-11-22T02:25:55;30.77;;;11.40;;
22298;SDS011;11317;51.072;17.036;2022-11-22T02:28:22;27.15;;;9.95;;
22298;SDS011;11317;51.072;17.036;2022-11-22T02:30:50;25.52;;;9.57;;
22298;SDS011;11317;51.072;17.036;2022-11-22T02:33:16;23.80;;;9.95;;
22298;SDS011;11317;51.072;17.036;2022-11-22T02:35:41;27.80;;;9.20;;
22298;SDS011;11317;51.072;17.036;2022-11-22T02:38:09;27.88;;;10.18;;
22298;SDS011;11317;51.072;17.036;2022-11-22T02:40:46;25.60;;;9.75;;
22298;SDS011;11317;51.072;17.036;2022-11-22T02:43:17;24.27;;;10.88;;
22298;SDS011;11317;51.072;17.036;2022-11-22T02:45:45;25.23;;;9.15;;
22298;SDS011;11317;51.072;17.036;2022-11-22T02:48:14;27.08;;;9.13;;
22298;SDS011;11317;51.072;17.036;2022-11-22T02:50:42;24.25;;;9.43;;
22298;SDS011;11317;51.072;17.036;2022-11-22T02:53:08;31.20;;;9.57;;
22298;SDS011;11317;51.072;17.036;2022-11-22T02:55:35;29.58;;;10.63;;
22298;SDS011;11317;51.072;17.036;2022-11-22T02:58:01;25.98;;;9.15;;
22298;SDS011;11317;51.072;17.036;2022-11-22T03:00:29;25.58;;;9.98;;
22298;SDS011;11317;51.072;17.036;2022-11-22T03:02:56;21.60;;;8.45;;
22298;SDS011;11317;51.072;17.036;2022-11-22T03:05:22;24.98;;;8.90;;
22298;SDS011;11317;51.072;17.036;2022-11-22T03:07:48;28.95;;;10.90;;
22298;SDS011;11317;51.072;17.036;2022-11-22T03:10:15;32.05;;;9.57;;
22298;SDS011;11317;51.072;17.036;2022-11-22T03:12:41;29.45;;;10.68;;
22298;SDS011;11317;51.072;17.036;2022-11-22T03:15:06;28.27;;;10.20;;
22298;SDS011;11317;51.072;17.036;2022-11-22T03:17:33;28.10;;;9.43;;
22298;SDS011;11317;51.072;17.036;2022-11-22T03:19:58;33.17;;;11.30;;
22298;SDS011;11317;51.072;17.036;2022-11-22T03:22:24;27.98;;;9.45;;
22298;SDS011;11317;51.072;17.036;2022-11-22T03:24:50;26.65;;;9.77;;
22298;SDS011;11317;51.072;17.036;2022-11-22T03:27:16;26.42;;;10.32;;
22298;SDS011;11317;51.072;17.036;2022-11-22T03:29:42;39.40;;;11.68;;
22298;SDS011;11317;51.072;17.036;2022-11-22T03:32:08;32.00;;;10.98;;
22298;SDS011;11317;51.072;17.036;2022-11-22T03:34:34;35.05;;;9.77;;
22298;SDS011;11317;51.072;17.036;2022-11-22T03:37:00;27.20;;;8.82;;
22298;SDS011;11317;51.072;17.036;2022-11-22T03:39:25;31.48;;;10.63;;
22298;SDS011;11317;51.072;17.036;2022-11-22T03:41:51;30.60;;;10.35;;
22298;SDS011;11317;51.072;17.036;2022-11-22T03:44:19;29.83;;;11.50;;
22298;SDS011;11317;51.072;17.036;2022-11-22T03:46:45;40.28;;;11.10;;
22298;SDS011;11317;51.072;17.036;2022-11-22T03:49:11;36.38;;;11.23;;
22298;SDS011;11317;51.072;17.036;2022-11-22T03:51:37;33.33;;;12.32;;
22298;SDS011;11317;51.072;17.036;2022-11-22T03:54:03;46.88;;;13.90;;
22298;SDS011;11317;51.072;17.036;2022-11-22T03:56:29;37.10;;;13.52;;
22298;SDS011;11317;51.072;17.036;2022-11-22T03:58:54;27.33;;;10.73;;
22298;SDS011;11317;51.072;17.036;2022-11-22T04:01:20;37.53;;;12.38;;
22298;SDS011;11317;51.072;17.036;2022-11-22T04:03:46;40.35;;;12.20;;
22298;SDS011;11317;51.072;17.036;2022-11-22T04:06:12;42.67;;;12.30;;
22298;SDS011;11317;51.072;17.036;2022-11-22T04:08:37;40.35;;;12.32;;
22298;SDS011;11317;51.072;17.036;2022-11-22T04:11:03;41.47;;;13.23;;
22298;SDS011;11317;51.072;17.036;2022-11-22T04:13:29;39.53;;;13.80;;
22298;SDS011;11317;51.072;17.036;2022-11-22T04:16:14;39.40;;;12.18;;
22298;SDS011;11317;51.072;17.036;2022-11-22T04:18:40;37.05;;;13.45;;
22298;SDS011;11317;51.072;17.036;2022-11-22T04:21:05;30.48;;;10.65;;
22298;SDS011;11317;51.072;17.036;2022-11-22T04:23:50;37.78;;;11.40;;
22298;SDS011;11317;51.072;17.036;2022-11-22T04:26:35;30.63;;;10.77;;
22298;SDS011;11317;51.072;17.036;2022-11-22T04:29:01;41.58;;;11.20;;
22298;SDS011;11317;51.072;17.036;2022-11-22T04:31:27;39.42;;;11.75;;
22298;SDS011;11317;51.072;17.036;2022-11-22T04:34:12;29.50;;;10.93;;
22298;SDS011;11317;51.072;17.036;2022-11-22T04:36:38;37.90;;;10.73;;
22298;SDS011;11317;51.072;17.036;2022-11-22T04:39:04;37.15;;;11.20;;
22298;SDS011;11317;51.072;17.036;2022-11-22T04:41:30;41.75;;;11.90;;
22298;SDS011;11317;51.072;17.036;2022-11-22T04:43:56;31.38;;;10.80;;
22298;SDS011;11317;51.072;17.036;2022-11-22T04:46:40;41.95;;;11.63;;
22298;SDS011;11317;51.072;17.036;2022-11-22T04:49:06;38.83;;;12.13;;
22298;SDS011;11317;51.072;17.036;2022-11-22T04:51:32;45.25;;;12.50;;
22298;SDS011;11317;51.072;17.036;2022-11-22T04:54:17;37.80;;;10.73;;
22298;SDS011;11317;51.072;17.036;2022-11-22T04:56:43;34.90;;;11.00;;
22298;SDS011;11317;51.072;17.036;2022-11-22T04:59:08;42.17;;;13.20;;
22298;SDS011;11317;51.072;17.036;2022-11-22T05:01:34;32.35;;;11.85;;
22298;SDS011;11317;51.072;17.036;2022-11-22T05:04:00;38.42;;;10.52;;
22298;SDS011;11317;51.072;17.036;2022-11-22T05:06:25;43.13;;;11.32;;
22298;SDS011;11317;51.072;17.036;2022-11-22T05:08:51;44.05;;;12.02;;
22298;SDS011;11317;51.072;17.036;2022-11-22T05:11:17;45.47;;;12.77;;
22298;SDS011;11317;51.072;17.036;2022-11-22T05:13:43;35.22;;;9.77;;
22298;SDS011;11317;51.072;17.036;2022-11-22T05:16:10;34.50;;;10.55;;
22298;SDS011;11317;51.072;17.036;2022-11-22T05:18:37;45.15;;;11.48;;
22298;SDS011;11317;51.072;17.036;2022-11-22T05:21:05;38.00;;;10.60;;
22298;SDS011;11317;51.072;17.036;2022-11-22T05:23:35;37.53;;;12.25;;
22298;SDS011;11317;51.072;17.036;2022-11-22T05:28:45;45.58;;;11.73;;
22298;SDS011;11317;51.072;17.036;2022-11-22T05:31:12;41.90;;;11.25;;
22298;SDS011;11317;51.072;17.036;2022-11-22T05:33:41;36.15;;;10.73;;
22298;SDS011;11317;51.072;17.036;2022-11-22T05:36:07;47.17;;;11.57;;
22298;SDS011;11317;51.072;17.036;2022-11-22T05:38:33;35.85;;;10.02;;
22298;SDS011;11317;51.072;17.036;2022-11-22T05:41:07;30.17;;;10.90;;
22298;SDS011;11317;51.072;17.036;2022-11-22T05:43:34;33.17;;;10.60;;
22298;SDS011;11317;51.072;17.036;2022-11-22T05:46:19;31.17;;;10.68;;
22298;SDS011;11317;51.072;17.036;2022-11-22T05:48:46;26.35;;;9.73;;
22298;SDS011;11317;51.072;17.036;2022-11-22T05:51:13;39.33;;;11.63;;
22298;SDS011;11317;51.072;17.036;2022-11-22T05:53:43;30.17;;;9.55;;
22298;SDS011;11317;51.072;17.036;2022-11-22T05:56:11;33.22;;;10.45;;
22298;SDS011;11317;51.072;17.036;2022-11-22T05:58:47;27.58;;;9.80;;
22298;SDS011;11317;51.072;17.036;2022-11-22T06:01:14;33.20;;;10.65;;
22298;SDS011;11317;51.072;17.036;2022-11-22T06:03:41;40.72;;;10.23;;
22298;SDS011;11317;51.072;17.036;2022-11-22T06:06:08;47.20;;;11.27;;
22298;SDS011;11317;51.072;17.036;2022-11-22T06:08:36;33.85;;;10.57;;
22298;SDS011;11317;51.072;17.036;2022-11-22T06:11:07;35.90;;;11.35;;
22298;SDS011;11317;51.072;17.036;2022-11-22T06:13:34;33.15;;;10.55;;
22298;SDS011;11317;51.072;17.036;2022-11-22T06:16:02;39.03;;;11.43;;
22298;SDS011;11317;51.072;17.036;2022-11-22T06:18:29;33.70;;;10.50;;
22298;SDS011;11317;51.072;17.036;2022-11-22T06:20:56;44.90;;;11.93;;
22298;SDS011;11317;51.072;17.036;2022-11-22T06:23:26;34.05;;;9.43;;
22298;SDS011;11317;51.072;17.036;2022-11-22T06:26:00;36.30;;;11.10;;
22298;SDS011;11317;51.072;17.036;2022-11-22T06:28:31;30.10;;;11.70;;
22298;SDS011;11317;51.072;17.036;2022-11-22T06:31:15;40.67;;;13.32;;
22298;SDS011;11317;51.072;17.036;2022-11-22T06:33:42;48.05;;;12.55;;
22298;SDS011;11317;51.072;17.036;2022-11-22T06:36:09;34.53;;;10.30;;
22298;SDS011;11317;51.072;17.036;2022-11-22T06:38:40;38.20;;;13.40;;
22298;SDS011;11317;51.072;17.036;2022-11-22T06:41:08;35.40;;;10.93;;
22298;SDS011;11317;51.072;17.036;2022-11-22T06:43:35;41.17;;;10.50;;
22298;SDS011;11317;51.072;17.036;2022-11-22T06:46:03;31.48;;;10.65;;
22298;SDS011;11317;51.072;17.036;2022-11-22T06:48:34;29.05;;;12.32;;
22298;SDS011;11317;51.072;17.036;2022-11-22T06:51:04;34.60;;;12.27;;
22298;SDS011;11317;51.072;17.036;2022-11-22T06:53:37;41.40;;;12.15;;
22298;SDS011;11317;51.072;17.036;2022-11-22T06:56:04;41.63;;;13.00;;
22298;SDS011;11317;51.072;17.036;2022-11-22T06:58:32;36.88;;;13.75;;
22298;SDS011;11317;51.072;17.036;2022-11-22T07:00:59;40.72;;;11.95;;
22298;SDS011;11317;51.072;17.036;2022-11-22T07:03:39;36.33;;;12.25;;
22298;SDS011;11317;51.072;17.036;2022-11-22T07:06:06;38.45;;;12.32;;
22298;SDS011;11317;51.072;17.036;2022-11-22T07:08:33;41.72;;;12.60;;
22298;SDS011;11317;51.072;17.036;2022-11-22T07:11:00;39.40;;;12.48;;
22298;SDS011;11317;51.072;17.036;2022-11-22T07:13:27;44.45;;;12.30;;
22298;SDS011;11317;51.072;17.036;2022-11-22T07:15:56;39.42;;;12.45;;
22298;SDS011;11317;51.072;17.036;2022-11-22T07:18:23;41.67;;;13.15;;
22298;SDS011;11317;51.072;17.036;2022-11-22T07:20:49;42.03;;;12.02;;
22298;SDS011;11317;51.072;17.036;2022-11-22T07:23:15;43.65;;;12.45;;
22298;SDS011;11317;51.072;17.036;2022-11-22T07:25:45;43.30;;;13.70;;
22298;SDS011;11317;51.072;17.036;2022-11-22T07:28:12;37.75;;;12.70;;
22298;SDS011;11317;51.072;17.036;2022-11-22T07:30:38;51.97;;;15.30;;
22298;SDS011;11317;51.072;17.036;2022-11-22T07:33:04;43.10;;;13.45;;
22298;SDS011;11317;51.072;17.036;2022-11-22T07:35:30;56.72;;;14.88;;
22298;SDS011;11317;51.072;17.036;2022-11-22T07:37:56;46.75;;;14.27;;
22298;SDS011;11317;51.072;17.036;2022-11-22T07:40:22;50.05;;;15.18;;
22298;SDS011;11317;51.072;17.036;2022-11-22T07:42:48;54.22;;;14.95;;
22298;SDS011;11317;51.072;17.036;2022-11-22T07:45:14;45.63;;;15.15;;
22298;SDS011;11317;51.072;17.036;2022-11-22T07:47:40;46.50;;;14.25;;
22298;SDS011;11317;51.072;17.036;2022-11-22T07:50:06;48.85;;;15.80;;
22298;SDS011;11317;51.072;17.036;2022-11-22T07:52:33;60.20;;;15.50;;
22298;SDS011;11317;51.072;17.036;2022-11-22T07:54:58;39.53;;;14.25;;
22298;SDS011;11317;51.072;17.036;2022-11-22T07:57:24;47.50;;;13.88;;
22298;SDS011;11317;51.072;17.036;2022-11-22T07:59:50;46.33;;;14.02;;
22298;SDS011;11317;51.072;17.036;2022-11-22T08:02:16;42.17;;;14.40;;
22298;SDS011;11317;51.072;17.036;2022-11-22T08:04:42;56.22;;;14.85;;
22298;SDS011;11317;51.072;17.036;2022-11-22T08:07:08;39.45;;;13.23;;
22298;SDS011;11317;51.072;17.036;2022-11-22T08:09:35;42.58;;;13.18;;
22298;SDS011;11317;51.072;17.036;2022-11-22T08:12:01;43.75;;;14.05;;
22298;SDS011;11317;51.072;17.036;2022-11-22T08:14:27;46.00;;;15.68;;
22298;SDS011;11317;51.072;17.036;2022-11-22T08:16:52;52.28;;;15.40;;
22298;SDS011;11317;51.072;17.036;2022-11-22T08:19:18;66.03;;;16.38;;
22298;SDS011;11317;51.072;17.036;2022-11-22T08:21:45;57.40;;;15.13;;
22298;SDS011;11317;51.072;17.036;2022-11-22T08:24:11;58.92;;;15.18;;
22298;SDS011;11317;51.072;17.036;2022-11-22T08:26:37;47.33;;;16.02;;
22298;SDS011;11317;51.072;17.036;2022-11-22T08:29:06;47.50;;;14.48;;
22298;SDS011;11317;51.072;17.036;2022-11-22T08:31:32;51.28;;;14.70;;
22298;SDS011;11317;51.072;17.036;2022-11-22T08:33:59;49.38;;;13.73;;
22298;SDS011;11317;51.072;17.036;2022-11-22T08:36:27;42.13;;;14.05;;
22298;SDS011;11317;51.072;17.036;2022-11-22T08:38:53;45.33;;;13.68;;
22298;SDS011;11317;51.072;17.036;2022-11-22T08:41:19;48.85;;;14.45;;
22298;SDS011;11317;51.072;17.036;2022-11-22T08:43:48;36.80;;;12.48;;
22298;SDS011;11317;51.072;17.036;2022-11-22T08:46:14;37.95;;;13.50;;
22298;SDS011;11317;51.072;17.036;2022-11-22T08:48:40;40.17;;;13.90;;
22298;SDS011;11317;51.072;17.036;2022-11-22T08:51:07;44.03;;;13.13;;
22298;SDS011;11317;51.072;17.036;2022-11-22T08:53:39;49.05;;;15.00;;
22298;SDS011;11317;51.072;17.036;2022-11-22T08:56:07;35.08;;;14.55;;
22298;SDS011;11317;51.072;17.036;2022-11-22T08:58:39;52.85;;;15.80;;
22298;SDS011;11317;51.072;17.036;2022-11-22T09:01:07;41.58;;;15.73;;
22298;SDS011;11317;51.072;17.036;2022-11-22T09:03:35;37.15;;;15.35;;
22298;SDS011;11317;51.072;17.036;2022-11-22T09:06:02;37.78;;;14.20;;
22298;SDS011;11317;51.072;17.036;2022-11-22T09:08:33;43.28;;;15.00;;
22298;SDS011;11317;51.072;17.036;2022-11-22T09:11:03;45.17;;;15.88;;
22298;SDS011;11317;51.072;17.036;2022-11-22T09:13:31;46.17;;;16.23;;
22298;SDS011;11317;51.072;17.036;2022-11-22T09:16:01;41.83;;;14.30;;
22298;SDS011;11317;51.072;17.036;2022-11-22T09:18:27;53.53;;;15.05;;
22298;SDS011;11317;51.072;17.036;2022-11-22T09:20:59;45.75;;;13.93;;
22298;SDS011;11317;51.072;17.036;2022-11-22T09:23:26;39.53;;;14.93;;
22298;SDS011;11317;51.072;17.036;2022-11-22T09:25:59;55.42;;;15.88;;
22298;SDS011;11317;51.072;17.036;2022-11-22T09:28:27;52.08;;;15.43;;
22298;SDS011;11317;51.072;17.036;2022-11-22T09:31:06;50.75;;;16.13;;
22298;SDS011;11317;51.072;17.036;2022-11-22T09:33:35;49.45;;;15.82;;
22298;SDS011;11317;51.072;17.036;2022-11-22T09:36:04;46.92;;;15.73;;
22298;SDS011;11317;51.072;17.036;2022-11-22T09:38:35;49.90;;;16.00;;
22298;SDS011;11317;51.072;17.036;2022-11-22T09:41:02;55.28;;;16.75;;
22298;SDS011;11317;51.072;17.036;2022-11-22T09:46:16;51.83;;;16.27;;
22298;SDS011;11317;51.072;17.036;2022-11-22T09:54:26;62.50;;;17.80;;
22298;SDS011;11317;51.072;17.036;2022-11-22T09:57:00;60.63;;;19.27;;
22298;SDS011;11317;51.072;17.036;2022-11-22T09:59:31;51.63;;;16.33;;
22298;SDS011;11317;51.072;17.036;2022-11-22T10:02:02;55.17;;;19.50;;
22298;SDS011;11317;51.072;17.036;2022-11-22T10:04:34;45.70;;;16.30;;
22298;SDS011;11317;51.072;17.036;2022-11-22T10:07:06;43.45;;;16.10;;
22298;SDS011;11317;51.072;17.036;2022-11-22T10:09:56;45.10;;;15.73;;
22298;SDS011;11317;51.072;17.036;2022-11-22T10:12:52;51.83;;;15.30;;
22298;SDS011;11317;51.072;17.036;2022-11-22T10:15:27;45.05;;;16.48;;
22298;SDS011;11317;51.072;17.036;2022-11-22T10:20:46;59.78;;;18.48;;
22298;SDS011;11317;51.072;17.036;2022-11-22T10:23:14;51.03;;;17.55;;
22298;SDS011;11317;51.072;17.036;2022-11-22T10:25:48;51.88;;;17.48;;
22298;SDS011;11317;51.072;17.036;2022-11-22T10:28:36;54.40;;;16.60;;
22298;SDS011;11317;51.072;17.036;2022-11-22T10:34:09;50.15;;;17.60;;
22298;SDS011;11317;51.072;17.036;2022-11-22T10:36:52;54.13;;;16.17;;
22298;SDS011;11317;51.072;17.036;2022-11-22T10:55:30;50.15;;;16.65;;
22298;SDS011;11317;51.072;17.036;2022-11-22T11:03:57;43.30;;;18.10;;
22298;SDS011;11317;51.072;17.036;2022-11-22T11:06:35;54.42;;;18.08;;
22298;SDS011;11317;51.072;17.036;2022-11-22T11:09:11;48.72;;;16.83;;
22298;SDS011;11317;51.072;17.036;2022-11-22T11:11:43;55.63;;;18.10;;
22298;SDS011;11317;51.072;17.036;2022-11-22T11:14:26;56.25;;;18.45;;
22298;SDS011;11317;51.072;17.036;2022-11-22T11:16:56;45.30;;;18.20;;
22298;SDS011;11317;51.072;17.036;2022-11-22T11:19:23;43.90;;;15.77;;
22298;SDS011;11317;51.072;17.036;2022-11-22T11:21:59;41.00;;;17.17;;
22298;SDS011;11317;51.072;17.036;2022-11-22T11:24:33;46.35;;;18.92;;
22298;SDS011;11317;51.072;17.036;2022-11-22T11:27:05;57.70;;;20.08;;
22298;SDS011;11317;51.072;17.036;2022-11-22T11:29:38;45.17;;;17.58;;
22298;SDS011;11317;51.072;17.036;2022-11-22T11:34:47;51.92;;;18.08;;
22298;SDS011;11317;51.072;17.036;2022-11-22T11:37:35;42.00;;;17.00;;
22298;SDS011;11317;51.072;17.036;2022-11-22T11:40:05;42.33;;;16.90;;
22298;SDS011;11317;51.072;17.036;2022-11-22T11:42:50;46.33;;;16.08;;
22298;SDS011;11317;51.072;17.036;2022-11-22T11:45:49;45.85;;;18.13;;
22298;SDS011;11317;51.072;17.036;2022-11-22T11:48:34;44.78;;;17.15;;
22298;SDS011;11317;51.072;17.036;2022-11-22T11:53:59;45.60;;;15.82;;
22298;SDS011;11317;51.072;17.036;2022-11-22T11:58:58;42.10;;;16.92;;
22298;SDS011;11317;51.072;17.036;2022-11-22T12:01:31;46.03;;;17.85;;
22298;SDS011;11317;51.072;17.036;2022-11-22T12:04:01;50.10;;;18.92;;
22298;SDS011;11317;51.072;17.036;2022-11-22T12:06:29;47.65;;;17.17;;
22298;SDS011;11317;51.072;17.036;2022-11-22T12:08:56;43.78;;;16.63;;
22298;SDS011;11317;51.072;17.036;2022-11-22T12:11:29;41.55;;;16.90;;
22298;SDS011;11317;51.072;17.036;2022-11-22T12:14:02;46.70;;;18.23;;
22298;SDS011;11317;51.072;17.036;2022-11-22T12:16:33;42.25;;;15.60;;
22298;SDS011;11317;51.072;17.036;2022-11-22T12:29:43;44.13;;;16.88;;
22298;SDS011;11317;51.072;17.036;2022-11-22T12:37:37;51.22;;;20.40;;
22298;SDS011;11317;51.072;17.036;2022-11-22T12:40:16;46.63;;;18.40;;
22298;SDS011;11317;51.072;17.036;2022-11-22T12:42:48;50.08;;;17.83;;
22298;SDS011;11317;51.072;17.036;2022-11-22T12:45:28;50.47;;;19.60;;
22298;SDS011;11317;51.072;17.036;2022-11-22T12:48:17;48.28;;;18.30;;
22298;SDS011;11317;51.072;17.036;2022-11-22T12:50:45;57.20;;;20.92;;
22298;SDS011;11317;51.072;17.036;2022-11-22T12:53:15;50.45;;;19.25;;
22298;SDS011;11317;51.072;17.036;2022-11-22T12:55:48;51.65;;;20.20;;
22298;SDS011;11317;51.072;17.036;2022-11-22T12:58:23;49.08;;;21.10;;
22298;SDS011;11317;51.072;17.036;2022-11-22T13:03:29;49.30;;;20.92;;
22298;SDS011;11317;51.072;17.036;2022-11-22T13:05:59;55.22;;;21.83;;
22298;SDS011;11317;51.072;17.036;2022-11-22T13:14:02;49.67;;;22.10;;
22298;SDS011;11317;51.072;17.036;2022-11-22T13:16:41;48.05;;;20.65;;
22298;SDS011;11317;51.072;17.036;2022-11-22T13:19:07;53.53;;;22.63;;
22298;SDS011;11317;51.072;17.036;2022-11-22T13:24:40;59.55;;;23.00;;
22298;SDS011;11317;51.072;17.036;2022-11-22T13:27:30;54.50;;;21.13;;
22298;SDS011;11317;51.072;17.036;2022-11-22T13:30:15;48.72;;;20.50;;
22298;SDS011;11317;51.072;17.036;2022-11-22T13:32:49;47.80;;;21.33;;
22298;SDS011;11317;51.072;17.036;2022-11-22T13:38:05;45.72;;;20.90;;
22298;SDS011;11317;51.072;17.036;2022-11-22T13:40:50;58.22;;;21.75;;
22298;SDS011;11317;51.072;17.036;2022-11-22T13:51:13;52.83;;;21.30;;
22298;SDS011;11317;51.072;17.036;2022-11-22T13:53:43;48.45;;;21.05;;
22298;SDS011;11317;51.072;17.036;2022-11-22T13:58:42;53.97;;;21.35;;
22298;SDS011;11317;51.072;17.036;2022-11-22T14:12:26;42.95;;;18.73;;
22298;SDS011;11317;51.072;17.036;2022-11-22T14:29:38;43.63;;;18.90;;
22298;SDS011;11317;51.072;17.036;2022-11-22T14:32:37;40.85;;;18.58;;
22298;SDS011;11317;51.072;17.036;2022-11-22T14:35:30;44.15;;;17.77;;
22298;SDS011;11317;51.072;17.036;2022-11-22T14:38:01;45.83;;;18.98;;
22298;SDS011;11317;51.072;17.036;2022-11-22T14:40:38;48.85;;;18.48;;
22298;SDS011;11317;51.072;17.036;2022-11-22T14:46:12;44.85;;;17.92;;
22298;SDS011;11317;51.072;17.036;2022-11-22T14:48:44;42.90;;;16.92;;
22298;SDS011;11317;51.072;17.036;2022-11-22T14:51:22;39.72;;;17.92;;
22298;SDS011;11317;51.072;17.036;2022-11-22T14:53:54;48.55;;;18.40;;
22298;SDS011;11317;51.072;17.036;2022-11-22T14:56:32;43.53;;;19.08;;
22298;SDS011;11317;51.072;17.036;2022-11-22T15:04:10;57.00;;;27.80;;
22298;SDS011;11317;51.072;17.036;2022-11-22T15:12:02;63.42;;;27.58;;
22298;SDS011;11317;51.072;17.036;2022-11-22T15:17:25;49.65;;;23.02;;
22298;SDS011;11317;51.072;17.036;2022-11-22T15:19:54;51.25;;;21.05;;
22298;SDS011;11317;51.072;17.036;2022-11-22T15:22:27;45.67;;;20.95;;
22298;SDS011;11317;51.072;17.036;2022-11-22T15:24:56;49.78;;;19.85;;
22298;SDS011;11317;51.072;17.036;2022-11-22T15:30:15;48.03;;;19.95;;
22298;SDS011;11317;51.072;17.036;2022-11-22T15:32:42;50.08;;;20.77;;
22298;SDS011;11317;51.072;17.036;2022-11-22T15:35:16;45.50;;;20.98;;
22298;SDS011;11317;51.072;17.036;2022-11-22T15:40:20;40.47;;;17.47;;
22298;SDS011;11317;51.072;17.036;2022-11-22T15:42:49;39.78;;;17.58;;
22298;SDS011;11317;51.072;17.036;2022-11-22T15:45:26;35.08;;;16.70;;
22298;SDS011;11317;51.072;17.036;2022-11-22T15:47:55;35.88;;;17.38;;
22298;SDS011;11317;51.072;17.036;2022-11-22T15:50:23;33.45;;;17.08;;
22298;SDS011;11317;51.072;17.036;2022-11-22T15:52:50;46.03;;;16.80;;
22298;SDS011;11317;51.072;17.036;2022-11-22T15:55:19;41.50;;;16.52;;
22298;SDS011;11317;51.072;17.036;2022-11-22T15:57:52;36.40;;;16.80;;
22298;SDS011;11317;51.072;17.036;2022-11-22T16:00:22;34.53;;;16.20;;
22298;SDS011;11317;51.072;17.036;2022-11-22T16:02:57;35.17;;;16.52;;
22298;SDS011;11317;51.072;17.036;2022-11-22T16:05:31;32.45;;;16.38;;
22298;SDS011;11317;51.072;17.036;2022-11-22T16:08:01;34.80;;;16.02;;
22298;SDS011;11317;51.072;17.036;2022-11-22T16:10:38;41.70;;;16.23;;
22298;SDS011;11317;51.072;17.036;2022-11-22T16:13:20;37.38;;;15.38;;
22298;SDS011;11317;51.072;17.036;2022-11-22T16:18:38;36.28;;;16.55;;
22298;SDS011;11317;51.072;17.036;2022-11-22T16:23:37;32.92;;;16.42;;
22298;SDS011;11317;51.072;17.036;2022-11-22T16:26:17;39.00;;;15.98;;
22298;SDS011;11317;51.072;17.036;2022-11-22T16:28:53;44.97;;;18.27;;
22298;SDS011;11317;51.072;17.036;2022-11-22T16:31:23;39.38;;;18.15;;
22298;SDS011;11317;51.072;17.036;2022-11-22T16:33:51;37.70;;;18.00;;
22298;SDS011;11317;51.072;17.036;2022-11-22T16:36:19;37.72;;;16.85;;
22298;SDS011;11317;51.072;17.036;2022-11-22T16:38:45;38.33;;;16.83;;
22298;SDS011;11317;51.072;17.036;2022-11-22T16:41:15;36.10;;;17.95;;
22298;SDS011;11317;51.072;17.036;2022-11-22T16:43:46;42.72;;;18.48;;
22298;SDS011;11317;51.072;17.036;2022-11-22T16:46:14;41.85;;;19.40;;
22298;SDS011;11317;51.072;17.036;2022-11-22T16:48:41;43.97;;;19.02;;
22298;SDS011;11317;51.072;17.036;2022-11-22T16:51:15;54.20;;;21.13;;